Time;durP1;ratioP1;P1;durP2;ratioP2;P2;SDS_P1;SDS_P2;PMS_P1;PMS_P2;Temp;Humidity;BMP_temperature;BMP_pressure;BME280_temperature;BME280_humidity;BME280_pressure;Samples;Min_cycle;Max_cycle;Signal;HPM_P1;HPM_P2
2023/01/30 00:07:57;;;;;;;25.48;10.80;;;-3.70;99.90;;;;;;21100644;28;20028;-78
2023/01/30 00:17:58;;;;;;;24.65;10.93;;;-3.70;99.90;;;;;;21046353;28;20024;-79
2023/01/30 00:28:00;;;;;;;21.85;10.38;;;-3.60;99.90;;;;;;21000377;28;20040;-78
2023/01/30 00:38:03;;;;;;;32.67;11.75;;;-3.60;99.90;;;;;;20979878;28;20468;-78
2023/01/30 00:48:04;;;;;;;44.40;15.02;;;-3.60;99.90;;;;;;20981294;28;20063;-78
2023/01/30 00:58:05;;;;;;;29.98;12.05;;;-3.30;99.90;;;;;;21074956;28;20034;-78
2023/01/30 01:08:06;;;;;;;28.63;11.02;;;-3.30;99.90;;;;;;21098042;28;20081;-78
2023/01/30 01:18:06;;;;;;;31.67;11.63;;;-3.20;99.90;;;;;;21109749;28;20487;-77
2023/01/30 01:28:07;;;;;;;34.50;13.73;;;-3.30;99.90;;;;;;21096124;28;20119;-77
2023/01/30 01:38:09;;;;;;;31.38;11.63;;;-3.20;99.90;;;;;;21084126;28;20028;-76
2023/01/30 01:48:37;;;;;;;29.67;12.23;;;-3.20;99.90;;;;;;21081302;28;20394;-78
2023/01/30 01:58:46;;;;;;;32.22;12.63;;;-3.00;99.90;;;;;;21011766;28;20100;-78
2023/01/30 02:08:52;;;;;;;30.75;13.23;;;-3.00;99.90;;;;;;20996690;28;20522;-78
2023/01/30 02:18:53;;;;;;;27.13;11.88;;;-3.00;99.90;;;;;;20991618;28;20060;-78
2023/01/30 02:29:03;;;;;;;32.58;14.02;;;-2.90;99.90;;;;;;21013270;28;20123;-79
2023/01/30 02:39:07;;;;;;;34.08;14.48;;;-2.70;99.90;;;;;;20989088;28;20025;-76
2023/01/30 02:49:18;;;;;;;43.75;15.88;;;-2.50;99.90;;;;;;20984852;28;20028;-76
2023/01/30 02:59:38;;;;;;;35.90;15.30;;;-2.50;99.90;;;;;;21002799;28;20556;-77
2023/01/30 03:09:45;;;;;;;32.97;13.85;;;-2.50;99.90;;;;;;20983063;28;20028;-77
2023/01/30 03:19:46;;;;;;;26.23;12.93;;;-1.70;99.90;;;;;;20986387;28;20025;-78
2023/01/30 03:29:47;;;;;;;27.90;11.15;;;-1.20;99.90;;;;;;20982375;28;20487;-78
2023/01/30 03:39:47;;;;;;;24.70;11.73;;;-1.00;99.90;;;;;;20978062;28;20055;-78
2023/01/30 03:49:49;;;;;;;25.27;10.52;;;-1.10;99.90;;;;;;21012882;28;20368;-77
2023/01/30 03:59:50;;;;;;;23.67;10.43;;;-0.90;99.90;;;;;;20983926;28;20028;-78
2023/01/30 04:09:51;;;;;;;23.15;10.15;;;-0.80;99.90;;;;;;20986428;28;20033;-78
2023/01/30 04:19:53;;;;;;;27.30;11.00;;;-0.80;99.90;;;;;;20982870;28;20056;-77
2023/01/30 04:29:54;;;;;;;27.83;12.00;;;-0.90;99.90;;;;;;20979971;28;20170;-78
2023/01/30 04:39:55;;;;;;;25.20;11.10;;;-1.00;99.90;;;;;;20972118;28;20060;-77
2023/01/30 04:49:57;;;;;;;27.38;11.13;;;-1.00;99.90;;;;;;20999582;28;20028;-79
2023/01/30 04:59:58;;;;;;;22.05;10.32;;;-0.90;99.90;;;;;;21002667;28;20075;-79
2023/01/30 05:10:01;;;;;;;39.22;14.65;;;-0.90;99.90;;;;;;21005320;28;20123;-78
2023/01/30 05:20:03;;;;;;;27.50;10.75;;;-0.90;99.90;;;;;;21049100;28;20044;-78
2023/01/30 05:30:05;;;;;;;23.67;11.02;;;-0.90;99.90;;;;;;21012570;28;20094;-76
2023/01/30 05:40:07;;;;;;;24.13;10.57;;;-0.90;99.90;;;;;;21090207;28;20028;-77
2023/01/30 05:50:09;;;;;;;23.20;11.35;;;-0.90;99.90;;;;;;21095003;28;20109;-77
2023/01/30 06:00:11;;;;;;;28.40;12.20;;;-0.90;99.90;;;;;;21004585;28;20063;-77
2023/01/30 06:10:14;;;;;;;25.67;10.57;;;-0.90;99.90;;;;;;21000969;28;20028;-77
2023/01/30 06:20:15;;;;;;;29.10;10.98;;;-1.00;99.90;;;;;;21015590;28;20025;-78
2023/01/30 06:30:16;;;;;;;21.60;10.15;;;-1.10;99.90;;;;;;21014110;28;20029;-78
2023/01/30 06:40:17;;;;;;;23.65;9.82;;;-1.10;99.90;;;;;;21005276;28;20085;-77
2023/01/30 06:50:20;;;;;;;19.17;8.15;;;-1.10;99.90;;;;;;20996513;28;20070;-79
2023/01/30 07:00:21;;;;;;;24.70;9.45;;;-0.90;99.90;;;;;;21073711;28;20032;-77
2023/01/30 07:10:22;;;;;;;20.98;9.07;;;-0.60;99.90;;;;;;21032781;28;20037;-78
2023/01/30 07:20:24;;;;;;;20.75;9.18;;;-0.60;99.90;;;;;;21010294;28;20031;-78
2023/01/30 07:30:26;;;;;;;20.75;9.50;;;-0.50;99.90;;;;;;20999769;28;20116;-77
2023/01/30 07:40:27;;;;;;;17.63;8.27;;;-0.50;99.90;;;;;;21001888;28;20035;-78
2023/01/30 07:50:28;;;;;;;17.98;9.20;;;-0.50;99.90;;;;;;21001467;28;20531;-78
2023/01/30 08:00:29;;;;;;;26.25;9.90;;;-0.40;99.90;;;;;;21003119;28;20036;-78
2023/01/30 08:10:29;;;;;;;18.55;9.30;;;0.20;99.90;;;;;;20995000;28;20033;-76
2023/01/30 08:20:30;;;;;;;20.98;9.55;;;1.00;99.90;;;;;;20989965;28;20090;-77
2023/01/30 08:30:31;;;;;;;18.27;8.50;;;0.40;99.90;;;;;;20990649;28;20033;-76
2023/01/30 08:40:32;;;;;;;20.13;9.57;;;0.70;99.90;;;;;;20993255;28;20036;-77
2023/01/30 08:50:33;;;;;;;20.60;9.45;;;1.30;99.90;;;;;;21001033;28;20036;-76
2023/01/30 09:00:34;;;;;;;23.48;8.82;;;1.10;99.90;;;;;;21072210;28;20024;-77
2023/01/30 09:10:35;;;;;;;17.92;8.40;;;0.70;99.90;;;;;;21057183;28;20036;-77
2023/01/30 09:20:37;;;;;;;19.83;8.48;;;0.50;99.90;;;;;;21028558;28;20510;-76
2023/01/30 09:30:38;;;;;;;20.55;9.15;;;0.80;99.90;;;;;;21017642;28;20102;-76
2023/01/30 09:40:54;;;;;;;18.33;8.60;;;0.80;99.90;;;;;;21072291;28;20032;-76
2023/01/30 09:51:06;;;;;;;20.92;8.95;;;1.10;99.90;;;;;;21078408;28;20031;-76
2023/01/30 10:01:16;;;;;;;20.70;8.98;;;1.50;99.90;;;;;;21000317;28;20499;-77
2023/01/30 10:11:53;;;;;;;20.40;10.18;;;1.20;99.90;;;;;;20999793;28;20059;-77
2023/01/30 10:22:23;;;;;;;20.98;9.30;;;1.00;99.90;;;;;;20982370;28;20064;-78
2023/01/30 10:32:27;;;;;;;21.95;9.18;;;0.90;99.90;;;;;;21021043;28;20044;-78
2023/01/30 10:42:45;;;;;;;21.52;10.02;;;1.10;99.90;;;;;;21082189;28;20036;-77
2023/01/30 10:52:49;;;;;;;25.55;11.00;;;1.80;99.90;;;;;;21063916;28;20523;-76
2023/01/30 11:03:13;;;;;;;22.70;10.63;;;1.40;99.90;;;;;;20996840;28;20032;-77
2023/01/30 11:13:19;;;;;;;23.15;10.35;;;1.50;99.90;;;;;;20982402;28;20441;-77
2023/01/30 11:23:38;;;;;;;23.05;9.52;;;1.40;99.90;;;;;;21021593;28;20532;-77
2023/01/30 11:33:39;;;;;;;17.10;8.57;;;1.60;99.90;;;;;;21076840;28;20032;-76
2023/01/30 11:43:40;;;;;;;17.98;7.03;;;2.40;99.90;;;;;;21076049;28;20111;-75
2023/01/30 11:53:47;;;;;;;15.70;6.68;;;3.30;99.90;;;;;;21046099;28;20434;-77
2023/01/30 12:03:52;;;;;;;15.93;7.82;;;3.60;99.90;;;;;;20991414;28;20044;-75
2023/01/30 12:13:58;;;;;;;18.10;7.22;;;3.40;99.90;;;;;;20991304;28;20024;-77
2023/01/30 12:24:24;;;;;;;16.48;6.60;;;4.20;99.90;;;;;;20996832;28;20037;-76
2023/01/30 12:34:25;;;;;;;13.48;6.28;;;4.10;99.90;;;;;;20990125;28;20069;-77
2023/01/30 12:44:35;;;;;;;11.63;5.95;;;4.30;99.90;;;;;;20990550;28;20115;-76
2023/01/30 12:54:39;;;;;;;12.95;6.00;;;3.70;99.90;;;;;;20998388;28;20124;-76
2023/01/30 13:05:02;;;;;;;12.48;5.93;;;3.60;99.90;;;;;;21004847;28;20064;-77
2023/01/30 13:15:29;;;;;;;15.23;6.25;;;3.50;99.90;;;;;;21003644;28;20040;-76
2023/01/30 13:25:49;;;;;;;11.88;6.07;;;3.40;99.90;;;;;;21009310;28;20029;-74
2023/01/30 13:36:14;;;;;;;11.68;6.03;;;3.40;99.90;;;;;;21067055;28;20024;-75
2023/01/30 13:46:22;;;;;;;14.88;6.22;;;3.20;99.90;;;;;;21086182;28;20032;-76
2023/01/30 13:56:38;;;;;;;14.27;6.95;;;2.90;99.90;;;;;;21041527;28;20460;-76
2023/01/30 14:06:39;;;;;;;16.50;7.22;;;2.80;99.90;;;;;;21022193;28;20085;-76
2023/01/30 14:16:49;;;;;;;17.55;8.05;;;2.30;99.90;;;;;;20998880;28;20032;-76
2023/01/30 14:26:58;;;;;;;20.57;9.60;;;2.30;99.90;;;;;;21001014;28;20032;-75
2023/01/30 14:36:59;;;;;;;23.48;10.60;;;2.00;99.90;;;;;;21035147;28;20036;-75
2023/01/30 14:46:59;;;;;;;26.38;11.05;;;1.80;99.90;;;;;;21036017;28;20071;-76
2023/01/30 14:57:02;;;;;;;26.02;11.65;;;1.50;99.90;;;;;;21023711;28;20032;-76
2023/01/30 15:07:18;;;;;;;24.98;10.85;;;1.40;99.90;;;;;;20995011;28;20085;-76
2023/01/30 15:17:55;;;;;;;35.63;13.38;;;1.30;99.90;;;;;;20992336;28;20037;-76
2023/01/30 15:28:18;;;;;;;29.42;12.75;;;1.10;99.90;;;;;;21020423;28;20073;-77
2023/01/30 15:38:30;;;;;;;26.15;11.65;;;1.10;99.90;;;;;;21050931;28;20054;-76
2023/01/30 15:49:15;;;;;;;32.47;14.07;;;0.90;99.90;;;;;;21009227;28;20021;-76
2023/01/30 15:59:34;;;;;;;39.45;15.43;;;0.80;99.90;;;;;;20890172;28;20041;-77
2023/01/30 16:09:35;;;;;;;38.90;14.85;;;0.70;99.90;;;;;;21047654;28;20036;-77
2023/01/30 16:19:37;;;;;;;30.73;13.43;;;0.70;99.90;;;;;;21013412;28;20472;-77
2023/01/30 16:29:54;;;;;;;34.55;14.20;;;0.70;99.90;;;;;;20998889;28;20115;-76
2023/01/30 16:40:12;;;;;;;38.72;13.40;;;0.70;99.90;;;;;;21003925;28;20032;-76
2023/01/30 16:50:21;;;;;;;44.95;17.48;;;0.60;99.90;;;;;;20997800;28;20083;-76
2023/01/30 17:00:30;;;;;;;37.67;13.55;;;0.70;99.90;;;;;;21028654;28;20078;-76
2023/01/30 17:10:40;;;;;;;41.97;15.15;;;0.70;99.90;;;;;;21012321;28;20090;-75
2023/01/30 17:20:46;;;;;;;44.72;17.92;;;0.70;99.90;;;;;;21031238;28;20432;-76
2023/01/30 17:30:48;;;;;;;70.32;22.98;;;0.80;99.90;;;;;;21054260;28;20032;-76
2023/01/30 17:40:50;;;;;;;52.90;19.35;;;0.80;99.90;;;;;;21064452;28;20027;-77
2023/01/30 17:50:50;;;;;;;40.22;16.15;;;0.70;99.90;;;;;;21067327;28;20035;-76
2023/01/30 18:00:51;;;;;;;46.08;15.75;;;0.70;99.90;;;;;;21002084;28;20044;-76
2023/01/30 18:10:52;;;;;;;39.88;16.52;;;0.80;99.90;;;;;;21003046;28;20548;-77
2023/01/30 18:20:53;;;;;;;41.90;15.65;;;0.80;99.90;;;;;;21059391;28;20028;-75
2023/01/30 18:30:54;;;;;;;36.63;14.00;;;0.90;99.90;;;;;;20997947;28;20056;-76
2023/01/30 18:40:55;;;;;;;25.55;10.80;;;0.90;99.90;;;;;;20995651;28;20046;-77
2023/01/30 18:51:06;;;;;;;16.15;7.75;;;1.10;99.90;;;;;;21019885;28;20063;-77
2023/01/30 19:01:13;;;;;;;17.15;7.47;;;1.30;99.90;;;;;;20998070;28;20040;-76
2023/01/30 19:21:36;;;;;;;11.95;6.95;;;1.50;99.90;;;;;;20992562;28;20153;-76
2023/01/30 19:31:37;;;;;;;12.02;6.68;;;1.60;99.90;;;;;;20990170;28;20487;-77
2023/01/30 19:41:37;;;;;;;16.17;7.65;;;1.60;99.90;;;;;;20993550;28;20090;-77
2023/01/30 19:51:39;;;;;;;38.85;16.85;;;1.50;99.90;;;;;;20990310;28;20036;-76
2023/01/30 20:01:40;;;;;;;32.63;16.20;;;1.40;99.90;;;;;;21023400;28;20024;-77
2023/01/30 20:11:41;;;;;;;40.63;14.25;;;1.30;99.90;;;;;;20974230;28;20037;-76
2023/01/30 20:21:43;;;;;;;31.83;14.02;;;1.40;99.90;;;;;;21000126;28;20122;-77
2023/01/30 20:31:45;;;;;;;37.50;13.40;;;1.40;99.90;;;;;;20980741;28;20064;-77
2023/01/30 20:41:46;;;;;;;21.25;10.13;;;1.30;99.90;;;;;;20987772;28;20025;-77
2023/01/30 20:51:49;;;;;;;26.92;12.57;;;1.40;99.90;;;;;;20989478;28;20039;-75
2023/01/30 21:01:50;;;;;;;30.67;13.07;;;1.40;99.90;;;;;;20998656;28;20036;-76
2023/01/30 21:11:52;;;;;;;31.77;13.40;;;1.50;99.90;;;;;;21007196;28;20028;-75
2023/01/30 21:21:53;;;;;;;48.03;18.77;;;1.50;99.90;;;;;;21075332;28;20445;-76
2023/01/30 21:31:56;;;;;;;35.35;15.95;;;1.50;99.90;;;;;;21002036;28;20075;-76
2023/01/30 21:52:16;;;;;;;29.05;12.88;;;1.50;99.90;;;;;;21000795;28;20037;-75
2023/01/30 22:02:17;;;;;;;27.13;12.50;;;1.50;99.90;;;;;;21000429;28;20039;-75
2023/01/30 22:12:18;;;;;;;25.92;10.93;;;1.50;99.90;;;;;;20988482;28;20028;-76
2023/01/30 22:22:22;;;;;;;18.48;8.32;;;1.50;99.90;;;;;;21028768;28;20103;-76
2023/01/30 22:32:23;;;;;;;26.67;11.60;;;1.60;99.90;;;;;;21000993;28;20070;-77
2023/01/30 22:42:24;;;;;;;24.85;11.40;;;1.50;99.90;;;;;;20998800;28;20033;-76
2023/01/30 22:52:25;;;;;;;25.58;11.55;;;1.50;99.90;;;;;;21005048;28;20041;-76
2023/01/30 23:02:25;;;;;;;31.00;11.80;;;1.50;99.90;;;;;;21000918;28;20036;-76
2023/01/30 23:22:50;;;;;;;25.30;10.80;;;1.50;99.90;;;;;;20993895;28;20403;-76
2023/01/30 23:32:50;;;;;;;16.85;8.05;;;1.50;99.90;;;;;;20978908;28;20043;-76
2023/01/30 23:42:51;;;;;;;20.98;8.73;;;1.50;99.90;;;;;;21031357;28;20032;-75
2023/01/30 23:52:52;;;;;;;21.83;10.18;;;1.50;99.90;;;;;;21052968;28;20082;-76
